sensor_id;sensor_type;location;lat;lon;timestamp;P1;durP1;ratioP1;P2;durP2;ratioP2
54263;SDS011;40178;53.042;6.406;2023-05-10T00:01:55;14.65;;;8.35;;
54263;SDS011;40178;53.042;6.406;2023-05-10T00:04:20;14.82;;;8.32;;
54263;SDS011;40178;53.042;6.406;2023-05-10T00:06:46;13.35;;;8.23;;
54263;SDS011;40178;53.042;6.406;2023-05-10T00:09:12;13.60;;;8.18;;
54263;SDS011;40178;53.042;6.406;2023-05-10T00:11:38;13.20;;;7.70;;
54263;SDS011;40178;53.042;6.406;2023-05-10T00:14:04;13.27;;;8.15;;
54263;SDS011;40178;53.042;6.406;2023-05-10T00:16:30;16.48;;;10.32;;
54263;SDS011;40178;53.042;6.406;2023-05-10T00:18:55;13.25;;;7.43;;
54263;SDS011;40178;53.042;6.406;2023-05-10T00:21:21;14.65;;;8.32;;
54263;SDS011;40178;53.042;6.406;2023-05-10T00:23:47;13.65;;;7.72;;
54263;SDS011;40178;53.042;6.406;2023-05-10T00:26:12;12.95;;;7.47;;
54263;SDS011;40178;53.042;6.406;2023-05-10T00:28:38;13.60;;;6.97;;
54263;SDS011;40178;53.042;6.406;2023-05-10T00:31:03;11.77;;;6.57;;
54263;SDS011;40178;53.042;6.406;2023-05-10T00:33:29;17.35;;;8.82;;
54263;SDS011;40178;53.042;6.406;2023-05-10T00:35:55;15.35;;;8.35;;
54263;SDS011;40178;53.042;6.406;2023-05-10T00:38:21;13.30;;;8.05;;
54263;SDS011;40178;53.042;6.406;2023-05-10T00:40:46;14.18;;;7.72;;
54263;SDS011;40178;53.042;6.406;2023-05-10T00:43:12;13.00;;;7.88;;
54263;SDS011;40178;53.042;6.406;2023-05-10T00:45:38;13.48;;;7.43;;
54263;SDS011;40178;53.042;6.406;2023-05-10T00:48:05;11.98;;;6.90;;
54263;SDS011;40178;53.042;6.406;2023-05-10T00:50:31;11.77;;;6.45;;
54263;SDS011;40178;53.042;6.406;2023-05-10T00:52:58;12.38;;;6.80;;
54263;SDS011;40178;53.042;6.406;2023-05-10T00:55:25;12.98;;;7.18;;
54263;SDS011;40178;53.042;6.406;2023-05-10T00:57:52;13.27;;;6.03;;
54263;SDS011;40178;53.042;6.406;2023-05-10T01:00:18;11.73;;;6.25;;
54263;SDS011;40178;53.042;6.406;2023-05-10T01:02:44;10.50;;;6.53;;
54263;SDS011;40178;53.042;6.406;2023-05-10T01:05:11;10.50;;;5.82;;
54263;SDS011;40178;53.042;6.406;2023-05-10T01:07:37;12.30;;;7.20;;
54263;SDS011;40178;53.042;6.406;2023-05-10T01:10:03;11.43;;;6.40;;
54263;SDS011;40178;53.042;6.406;2023-05-10T01:12:30;11.52;;;6.10;;
54263;SDS011;40178;53.042;6.406;2023-05-10T01:14:55;11.25;;;6.75;;
54263;SDS011;40178;53.042;6.406;2023-05-10T01:17:22;11.63;;;6.25;;
54263;SDS011;40178;53.042;6.406;2023-05-10T01:19:48;10.98;;;6.47;;
54263;SDS011;40178;53.042;6.406;2023-05-10T01:33:26;12.93;;;7.88;;
54263;SDS011;40178;53.042;6.406;2023-05-10T01:36:03;14.98;;;7.47;;
54263;SDS011;40178;53.042;6.406;2023-05-10T01:38:45;12.60;;;7.22;;
54263;SDS011;40178;53.042;6.406;2023-05-10T01:47:07;16.55;;;8.27;;
54263;SDS011;40178;53.042;6.406;2023-05-10T01:49:46;15.98;;;8.50;;
54263;SDS011;40178;53.042;6.406;2023-05-10T01:52:16;15.00;;;9.13;;
54263;SDS011;40178;53.042;6.406;2023-05-10T01:54:50;13.40;;;8.07;;
54263;SDS011;40178;53.042;6.406;2023-05-10T01:57:35;14.73;;;8.05;;
54263;SDS011;40178;53.042;6.406;2023-05-10T02:00:03;15.10;;;8.57;;
54263;SDS011;40178;53.042;6.406;2023-05-10T02:02:30;15.98;;;9.30;;
54263;SDS011;40178;53.042;6.406;2023-05-10T02:05:00;18.23;;;9.07;;
54263;SDS011;40178;53.042;6.406;2023-05-10T02:07:28;15.98;;;9.68;;
54263;SDS011;40178;53.042;6.406;2023-05-10T02:09:54;17.80;;;10.02;;
54263;SDS011;40178;53.042;6.406;2023-05-10T02:12:21;18.27;;;9.57;;
54263;SDS011;40178;53.042;6.406;2023-05-10T02:14:48;21.33;;;11.15;;
54263;SDS011;40178;53.042;6.406;2023-05-10T02:17:15;21.60;;;10.90;;
54263;SDS011;40178;53.042;6.406;2023-05-10T02:19:42;20.98;;;10.57;;
54263;SDS011;40178;53.042;6.406;2023-05-10T02:22:10;21.15;;;11.13;;
54263;SDS011;40178;53.042;6.406;2023-05-10T02:24:37;21.13;;;11.85;;
54263;SDS011;40178;53.042;6.406;2023-05-10T02:27:04;20.30;;;11.30;;
54263;SDS011;40178;53.042;6.406;2023-05-10T02:29:31;22.75;;;11.65;;
54263;SDS011;40178;53.042;6.406;2023-05-10T02:31:58;23.38;;;11.52;;
54263;SDS011;40178;53.042;6.406;2023-05-10T02:34:28;23.45;;;12.20;;
54263;SDS011;40178;53.042;6.406;2023-05-10T02:36:55;23.55;;;12.35;;
54263;SDS011;40178;53.042;6.406;2023-05-10T02:39:22;23.80;;;12.90;;
54263;SDS011;40178;53.042;6.406;2023-05-10T02:41:49;24.58;;;12.43;;
54263;SDS011;40178;53.042;6.406;2023-05-10T02:44:19;21.90;;;12.63;;
54263;SDS011;40178;53.042;6.406;2023-05-10T02:46:47;25.50;;;14.05;;
54263;SDS011;40178;53.042;6.406;2023-05-10T02:49:13;22.48;;;12.45;;
54263;SDS011;40178;53.042;6.406;2023-05-10T02:51:44;25.27;;;14.20;;
54263;SDS011;40178;53.042;6.406;2023-05-10T02:54:18;27.65;;;13.10;;
54263;SDS011;40178;53.042;6.406;2023-05-10T02:56:50;22.77;;;12.65;;
54263;SDS011;40178;53.042;6.406;2023-05-10T02:59:18;25.38;;;13.63;;
54263;SDS011;40178;53.042;6.406;2023-05-10T03:01:44;26.60;;;13.52;;
54263;SDS011;40178;53.042;6.406;2023-05-10T03:04:10;23.17;;;14.05;;
54263;SDS011;40178;53.042;6.406;2023-05-10T03:06:35;25.00;;;15.27;;
54263;SDS011;40178;53.042;6.406;2023-05-10T03:09:01;21.98;;;12.25;;
54263;SDS011;40178;53.042;6.406;2023-05-10T03:14:07;22.37;;;13.03;;
54263;SDS011;40178;53.042;6.406;2023-05-10T03:16:50;25.95;;;12.95;;
54263;SDS011;40178;53.042;6.406;2023-05-10T03:22:06;19.70;;;11.30;;
54263;SDS011;40178;53.042;6.406;2023-05-10T03:24:35;22.38;;;11.75;;
54263;SDS011;40178;53.042;6.406;2023-05-10T03:27:04;20.90;;;11.55;;
54263;SDS011;40178;53.042;6.406;2023-05-10T03:29:31;21.05;;;11.18;;
54263;SDS011;40178;53.042;6.406;2023-05-10T03:31:57;20.15;;;10.13;;
54263;SDS011;40178;53.042;6.406;2023-05-10T03:34:25;20.10;;;10.18;;
54263;SDS011;40178;53.042;6.406;2023-05-10T03:36:50;17.17;;;9.25;;
54263;SDS011;40178;53.042;6.406;2023-05-10T03:39:16;18.73;;;10.32;;
54263;SDS011;40178;53.042;6.406;2023-05-10T03:41:42;18.77;;;10.10;;
54263;SDS011;40178;53.042;6.406;2023-05-10T03:44:07;20.20;;;9.90;;
54263;SDS011;40178;53.042;6.406;2023-05-10T03:46:33;17.35;;;9.65;;
54263;SDS011;40178;53.042;6.406;2023-05-10T03:48:59;17.50;;;9.38;;
54263;SDS011;40178;53.042;6.406;2023-05-10T03:51:24;16.73;;;8.93;;
54263;SDS011;40178;53.042;6.406;2023-05-10T03:53:53;15.75;;;8.20;;
54263;SDS011;40178;53.042;6.406;2023-05-10T03:56:19;18.75;;;9.00;;
54263;SDS011;40178;53.042;6.406;2023-05-10T03:58:45;14.50;;;8.43;;
54263;SDS011;40178;53.042;6.406;2023-05-10T04:01:11;16.92;;;8.63;;
54263;SDS011;40178;53.042;6.406;2023-05-10T04:03:37;15.75;;;8.32;;
54263;SDS011;40178;53.042;6.406;2023-05-10T04:06:03;14.93;;;7.82;;
54263;SDS011;40178;53.042;6.406;2023-05-10T04:08:30;14.93;;;8.02;;
54263;SDS011;40178;53.042;6.406;2023-05-10T04:11:09;13.02;;;8.00;;
54263;SDS011;40178;53.042;6.406;2023-05-10T04:13:36;12.88;;;8.13;;
54263;SDS011;40178;53.042;6.406;2023-05-10T04:16:02;15.40;;;8.05;;
54263;SDS011;40178;53.042;6.406;2023-05-10T04:18:28;14.10;;;8.52;;
54263;SDS011;40178;53.042;6.406;2023-05-10T04:20:53;14.50;;;7.90;;
54263;SDS011;40178;53.042;6.406;2023-05-10T04:23:19;14.18;;;8.27;;
54263;SDS011;40178;53.042;6.406;2023-05-10T04:25:44;14.27;;;8.13;;
54263;SDS011;40178;53.042;6.406;2023-05-10T04:28:10;14.10;;;8.52;;
54263;SDS011;40178;53.042;6.406;2023-05-10T04:30:36;14.75;;;8.45;;
54263;SDS011;40178;53.042;6.406;2023-05-10T04:33:01;15.00;;;8.20;;
54263;SDS011;40178;53.042;6.406;2023-05-10T04:35:27;14.55;;;8.23;;
54263;SDS011;40178;53.042;6.406;2023-05-10T04:37:53;14.07;;;8.93;;
54263;SDS011;40178;53.042;6.406;2023-05-10T04:40:19;14.43;;;8.85;;
54263;SDS011;40178;53.042;6.406;2023-05-10T04:42:45;12.77;;;7.85;;
54263;SDS011;40178;53.042;6.406;2023-05-10T04:45:10;12.10;;;7.70;;
54263;SDS011;40178;53.042;6.406;2023-05-10T04:47:36;14.27;;;8.52;;
54263;SDS011;40178;53.042;6.406;2023-05-10T04:50:02;12.88;;;8.07;;
54263;SDS011;40178;53.042;6.406;2023-05-10T04:52:28;14.88;;;8.60;;
54263;SDS011;40178;53.042;6.406;2023-05-10T04:54:54;13.23;;;8.20;;
54263;SDS011;40178;53.042;6.406;2023-05-10T04:57:20;12.00;;;7.70;;
54263;SDS011;40178;53.042;6.406;2023-05-10T04:59:46;11.43;;;7.38;;
54263;SDS011;40178;53.042;6.406;2023-05-10T05:02:11;12.35;;;7.38;;
54263;SDS011;40178;53.042;6.406;2023-05-10T05:04:37;13.50;;;7.70;;
54263;SDS011;40178;53.042;6.406;2023-05-10T05:07:03;12.10;;;6.97;;
54263;SDS011;40178;53.042;6.406;2023-05-10T05:09:28;11.63;;;7.38;;
54263;SDS011;40178;53.042;6.406;2023-05-10T05:11:54;11.30;;;7.05;;
54263;SDS011;40178;53.042;6.406;2023-05-10T05:14:19;11.15;;;6.63;;
54263;SDS011;40178;53.042;6.406;2023-05-10T05:16:50;11.18;;;6.10;;
54263;SDS011;40178;53.042;6.406;2023-05-10T05:19:19;9.98;;;6.38;;
54263;SDS011;40178;53.042;6.406;2023-05-10T05:21:44;9.27;;;5.82;;
54263;SDS011;40178;53.042;6.406;2023-05-10T05:24:10;9.80;;;6.25;;
54263;SDS011;40178;53.042;6.406;2023-05-10T05:26:37;9.55;;;5.95;;
54263;SDS011;40178;53.042;6.406;2023-05-10T05:29:03;9.00;;;5.82;;
54263;SDS011;40178;53.042;6.406;2023-05-10T05:31:29;9.70;;;5.90;;
54263;SDS011;40178;53.042;6.406;2023-05-10T05:33:55;8.55;;;5.45;;
54263;SDS011;40178;53.042;6.406;2023-05-10T05:36:21;9.63;;;6.00;;
54263;SDS011;40178;53.042;6.406;2023-05-10T05:38:47;9.43;;;5.75;;
54263;SDS011;40178;53.042;6.406;2023-05-10T05:41:12;9.35;;;5.68;;
54263;SDS011;40178;53.042;6.406;2023-05-10T05:43:38;9.15;;;5.30;;
54263;SDS011;40178;53.042;6.406;2023-05-10T05:46:04;8.25;;;5.13;;
54263;SDS011;40178;53.042;6.406;2023-05-10T05:48:30;8.60;;;5.00;;
54263;SDS011;40178;53.042;6.406;2023-05-10T05:50:56;10.82;;;4.97;;
54263;SDS011;40178;53.042;6.406;2023-05-10T05:53:22;7.82;;;4.68;;
54263;SDS011;40178;53.042;6.406;2023-05-10T05:55:52;6.72;;;3.65;;
54263;SDS011;40178;53.042;6.406;2023-05-10T05:58:19;7.07;;;3.72;;
54263;SDS011;40178;53.042;6.406;2023-05-10T06:00:45;7.30;;;3.78;;
54263;SDS011;40178;53.042;6.406;2023-05-10T06:03:10;5.93;;;3.05;;
54263;SDS011;40178;53.042;6.406;2023-05-10T06:05:36;6.70;;;3.25;;
54263;SDS011;40178;53.042;6.406;2023-05-10T06:08:02;6.13;;;3.15;;
54263;SDS011;40178;53.042;6.406;2023-05-10T06:10:27;6.32;;;3.15;;
54263;SDS011;40178;53.042;6.406;2023-05-10T06:12:53;5.32;;;2.80;;
54263;SDS011;40178;53.042;6.406;2023-05-10T06:15:19;5.60;;;2.90;;
54263;SDS011;40178;53.042;6.406;2023-05-10T06:17:44;5.22;;;2.60;;
54263;SDS011;40178;53.042;6.406;2023-05-10T06:20:12;4.20;;;1.83;;
54263;SDS011;40178;53.042;6.406;2023-05-10T06:22:38;3.72;;;1.67;;
54263;SDS011;40178;53.042;6.406;2023-05-10T06:25:03;2.20;;;0.90;;
54263;SDS011;40178;53.042;6.406;2023-05-10T06:27:29;1.80;;;0.80;;
54263;SDS011;40178;53.042;6.406;2023-05-10T06:29:55;2.00;;;0.70;;
54263;SDS011;40178;53.042;6.406;2023-05-10T06:32:20;1.73;;;0.70;;
54263;SDS011;40178;53.042;6.406;2023-05-10T06:34:46;2.10;;;0.60;;
54263;SDS011;40178;53.042;6.406;2023-05-10T06:37:12;1.55;;;0.70;;
54263;SDS011;40178;53.042;6.406;2023-05-10T06:39:38;0.90;;;0.50;;
54263;SDS011;40178;53.042;6.406;2023-05-10T06:42:03;0.93;;;0.45;;
54263;SDS011;40178;53.042;6.406;2023-05-10T06:44:29;1.95;;;0.57;;
54263;SDS011;40178;53.042;6.406;2023-05-10T06:46:55;0.82;;;0.40;;
54263;SDS011;40178;53.042;6.406;2023-05-10T06:49:21;2.22;;;0.40;;
54263;SDS011;40178;53.042;6.406;2023-05-10T06:51:47;1.02;;;0.50;;
54263;SDS011;40178;53.042;6.406;2023-05-10T06:54:13;0.80;;;0.30;;
54263;SDS011;40178;53.042;6.406;2023-05-10T06:56:39;0.70;;;0.30;;
54263;SDS011;40178;53.042;6.406;2023-05-10T06:59:04;1.15;;;0.40;;
54263;SDS011;40178;53.042;6.406;2023-05-10T07:01:30;1.13;;;0.55;;
54263;SDS011;40178;53.042;6.406;2023-05-10T07:03:55;1.75;;;0.65;;
54263;SDS011;40178;53.042;6.406;2023-05-10T07:06:21;1.13;;;0.50;;
54263;SDS011;40178;53.042;6.406;2023-05-10T07:08:47;1.67;;;0.70;;
54263;SDS011;40178;53.042;6.406;2023-05-10T07:11:12;1.75;;;0.70;;
54263;SDS011;40178;53.042;6.406;2023-05-10T07:13:38;2.22;;;0.82;;
54263;SDS011;40178;53.042;6.406;2023-05-10T07:16:06;2.45;;;1.02;;
54263;SDS011;40178;53.042;6.406;2023-05-10T07:18:32;1.75;;;0.90;;
54263;SDS011;40178;53.042;6.406;2023-05-10T07:20:58;3.45;;;1.10;;
54263;SDS011;40178;53.042;6.406;2023-05-10T07:23:24;2.97;;;1.00;;
54263;SDS011;40178;53.042;6.406;2023-05-10T07:25:50;2.67;;;1.10;;
54263;SDS011;40178;53.042;6.406;2023-05-10T07:28:19;2.67;;;1.30;;
54263;SDS011;40178;53.042;6.406;2023-05-10T07:30:45;2.35;;;1.00;;
54263;SDS011;40178;53.042;6.406;2023-05-10T07:33:13;2.45;;;1.15;;
54263;SDS011;40178;53.042;6.406;2023-05-10T07:35:40;2.67;;;0.93;;
54263;SDS011;40178;53.042;6.406;2023-05-10T07:38:06;2.83;;;0.88;;
54263;SDS011;40178;53.042;6.406;2023-05-10T07:40:31;2.30;;;1.02;;
54263;SDS011;40178;53.042;6.406;2023-05-10T07:42:57;3.25;;;1.27;;
54263;SDS011;40178;53.042;6.406;2023-05-10T07:45:23;4.30;;;1.15;;
54263;SDS011;40178;53.042;6.406;2023-05-10T07:47:49;3.67;;;1.15;;
54263;SDS011;40178;53.042;6.406;2023-05-10T07:50:15;2.50;;;1.17;;
54263;SDS011;40178;53.042;6.406;2023-05-10T07:52:40;2.42;;;1.17;;
54263;SDS011;40178;53.042;6.406;2023-05-10T07:55:06;4.25;;;1.63;;
54263;SDS011;40178;53.042;6.406;2023-05-10T07:57:33;2.90;;;1.30;;
54263;SDS011;40178;53.042;6.406;2023-05-10T07:59:59;3.63;;;1.70;;
54263;SDS011;40178;53.042;6.406;2023-05-10T08:02:25;3.78;;;1.60;;
54263;SDS011;40178;53.042;6.406;2023-05-10T08:04:50;3.70;;;1.42;;
54263;SDS011;40178;53.042;6.406;2023-05-10T08:07:16;4.45;;;1.90;;
54263;SDS011;40178;53.042;6.406;2023-05-10T08:09:42;3.90;;;1.73;;
54263;SDS011;40178;53.042;6.406;2023-05-10T08:12:07;3.42;;;1.45;;
54263;SDS011;40178;53.042;6.406;2023-05-10T08:14:33;4.43;;;2.13;;
54263;SDS011;40178;53.042;6.406;2023-05-10T08:16:59;4.05;;;1.90;;
54263;SDS011;40178;53.042;6.406;2023-05-10T08:19:25;4.03;;;1.67;;
54263;SDS011;40178;53.042;6.406;2023-05-10T08:21:50;4.22;;;1.83;;
54263;SDS011;40178;53.042;6.406;2023-05-10T08:24:16;3.80;;;2.05;;
54263;SDS011;40178;53.042;6.406;2023-05-10T08:26:42;4.35;;;2.20;;
54263;SDS011;40178;53.042;6.406;2023-05-10T08:29:08;5.40;;;2.25;;
54263;SDS011;40178;53.042;6.406;2023-05-10T08:31:33;4.00;;;2.00;;
54263;SDS011;40178;53.042;6.406;2023-05-10T08:33:59;3.40;;;1.60;;
54263;SDS011;40178;53.042;6.406;2023-05-10T08:36:25;5.30;;;1.90;;
54263;SDS011;40178;53.042;6.406;2023-05-10T08:38:51;4.55;;;1.85;;
54263;SDS011;40178;53.042;6.406;2023-05-10T08:41:18;4.78;;;2.10;;
54263;SDS011;40178;53.042;6.406;2023-05-10T08:43:46;4.70;;;2.22;;
54263;SDS011;40178;53.042;6.406;2023-05-10T08:46:15;3.80;;;2.00;;
54263;SDS011;40178;53.042;6.406;2023-05-10T08:48:43;5.35;;;2.40;;
54263;SDS011;40178;53.042;6.406;2023-05-10T08:51:12;5.30;;;2.63;;
54263;SDS011;40178;53.042;6.406;2023-05-10T08:53:40;5.82;;;2.63;;
54263;SDS011;40178;53.042;6.406;2023-05-10T08:56:05;5.72;;;2.97;;
54263;SDS011;40178;53.042;6.406;2023-05-10T08:58:31;6.60;;;3.35;;
54263;SDS011;40178;53.042;6.406;2023-05-10T09:00:57;6.45;;;3.35;;
54263;SDS011;40178;53.042;6.406;2023-05-10T09:03:24;5.90;;;3.08;;
54263;SDS011;40178;53.042;6.406;2023-05-10T09:05:49;6.60;;;3.30;;
54263;SDS011;40178;53.042;6.406;2023-05-10T09:08:15;7.18;;;3.38;;
54263;SDS011;40178;53.042;6.406;2023-05-10T09:10:42;9.07;;;3.38;;
54263;SDS011;40178;53.042;6.406;2023-05-10T09:13:10;7.38;;;3.72;;
54263;SDS011;40178;53.042;6.406;2023-05-10T09:15:37;6.43;;;3.60;;
54263;SDS011;40178;53.042;6.406;2023-05-10T09:18:03;7.15;;;3.53;;
54263;SDS011;40178;53.042;6.406;2023-05-10T09:20:29;6.93;;;3.95;;
54263;SDS011;40178;53.042;6.406;2023-05-10T09:22:56;8.38;;;3.70;;
54263;SDS011;40178;53.042;6.406;2023-05-10T09:25:21;6.78;;;3.63;;
54263;SDS011;40178;53.042;6.406;2023-05-10T09:27:47;8.50;;;3.40;;
54263;SDS011;40178;53.042;6.406;2023-05-10T09:30:17;6.88;;;3.95;;
54263;SDS011;40178;53.042;6.406;2023-05-10T09:32:51;8.90;;;3.92;;
54263;SDS011;40178;53.042;6.406;2023-05-10T09:35:18;7.43;;;3.85;;
54263;SDS011;40178;53.042;6.406;2023-05-10T09:37:49;10.13;;;4.38;;
54263;SDS011;40178;53.042;6.406;2023-05-10T09:40:18;8.02;;;4.28;;
54263;SDS011;40178;53.042;6.406;2023-05-10T09:42:55;10.57;;;4.47;;
54263;SDS011;40178;53.042;6.406;2023-05-10T09:45:21;8.13;;;4.28;;
54263;SDS011;40178;53.042;6.406;2023-05-10T09:47:48;7.32;;;4.40;;
54263;SDS011;40178;53.042;6.406;2023-05-10T09:50:13;8.15;;;4.32;;
54263;SDS011;40178;53.042;6.406;2023-05-10T09:55:11;8.45;;;3.97;;
54263;SDS011;40178;53.042;6.406;2023-05-10T09:57:37;6.53;;;3.90;;
54263;SDS011;40178;53.042;6.406;2023-05-10T10:00:03;7.18;;;3.88;;
54263;SDS011;40178;53.042;6.406;2023-05-10T10:02:29;8.25;;;4.63;;
54263;SDS011;40178;53.042;6.406;2023-05-10T10:04:56;9.85;;;4.38;;
54263;SDS011;40178;53.042;6.406;2023-05-10T10:07:23;7.70;;;4.07;;
54263;SDS011;40178;53.042;6.406;2023-05-10T10:09:52;7.50;;;3.58;;
54263;SDS011;40178;53.042;6.406;2023-05-10T10:12:18;7.43;;;4.00;;
54263;SDS011;40178;53.042;6.406;2023-05-10T10:14:48;10.27;;;4.22;;
54263;SDS011;40178;53.042;6.406;2023-05-10T10:17:15;7.60;;;4.05;;
54263;SDS011;40178;53.042;6.406;2023-05-10T10:19:41;8.65;;;4.40;;
54263;SDS011;40178;53.042;6.406;2023-05-10T10:22:07;8.18;;;3.63;;
54263;SDS011;40178;53.042;6.406;2023-05-10T10:24:35;8.55;;;4.55;;
54263;SDS011;40178;53.042;6.406;2023-05-10T10:27:07;8.70;;;3.85;;
54263;SDS011;40178;53.042;6.406;2023-05-10T10:29:47;7.43;;;3.65;;
54263;SDS011;40178;53.042;6.406;2023-05-10T10:32:35;7.03;;;3.63;;
54263;SDS011;40178;53.042;6.406;2023-05-10T10:35:28;7.95;;;3.60;;
54263;SDS011;40178;53.042;6.406;2023-05-10T10:37:55;7.90;;;3.95;;
54263;SDS011;40178;53.042;6.406;2023-05-10T10:40:28;7.25;;;3.88;;
54263;SDS011;40178;53.042;6.406;2023-05-10T10:42:58;8.63;;;3.88;;
54263;SDS011;40178;53.042;6.406;2023-05-10T10:48:36;6.75;;;3.80;;
54263;SDS011;40178;53.042;6.406;2023-05-10T10:51:02;9.63;;;4.70;;
54263;SDS011;40178;53.042;6.406;2023-05-10T10:53:28;9.50;;;4.38;;
54263;SDS011;40178;53.042;6.406;2023-05-10T10:56:07;7.65;;;4.18;;
54263;SDS011;40178;53.042;6.406;2023-05-10T10:58:34;9.13;;;4.30;;
54263;SDS011;40178;53.042;6.406;2023-05-10T11:03:41;7.45;;;3.60;;
54263;SDS011;40178;53.042;6.406;2023-05-10T11:06:30;9.13;;;3.55;;
54263;SDS011;40178;53.042;6.406;2023-05-10T11:09:10;6.72;;;3.33;;
54263;SDS011;40178;53.042;6.406;2023-05-10T11:11:48;7.50;;;3.80;;
54263;SDS011;40178;53.042;6.406;2023-05-10T11:14:17;7.75;;;3.50;;
54263;SDS011;40178;53.042;6.406;2023-05-10T11:16:46;6.35;;;2.90;;
54263;SDS011;40178;53.042;6.406;2023-05-10T11:19:12;6.15;;;3.13;;
54263;SDS011;40178;53.042;6.406;2023-05-10T11:21:49;5.95;;;3.20;;
54263;SDS011;40178;53.042;6.406;2023-05-10T11:24:20;5.50;;;3.03;;
54263;SDS011;40178;53.042;6.406;2023-05-10T11:26:49;7.43;;;3.70;;
54263;SDS011;40178;53.042;6.406;2023-05-10T11:29:16;6.53;;;2.88;;
54263;SDS011;40178;53.042;6.406;2023-05-10T11:31:45;6.63;;;3.67;;
54263;SDS011;40178;53.042;6.406;2023-05-10T11:36:52;7.28;;;3.75;;
54263;SDS011;40178;53.042;6.406;2023-05-10T11:39:19;9.82;;;4.95;;
54263;SDS011;40178;53.042;6.406;2023-05-10T11:41:47;8.27;;;4.25;;
54263;SDS011;40178;53.042;6.406;2023-05-10T11:44:14;8.48;;;4.78;;
54263;SDS011;40178;53.042;6.406;2023-05-10T11:46:39;9.43;;;4.13;;
54263;SDS011;40178;53.042;6.406;2023-05-10T11:49:06;8.52;;;4.28;;
54263;SDS011;40178;53.042;6.406;2023-05-10T11:51:35;9.00;;;4.18;;
54263;SDS011;40178;53.042;6.406;2023-05-10T11:54:05;7.28;;;3.65;;
54263;SDS011;40178;53.042;6.406;2023-05-10T11:56:33;8.55;;;4.40;;
54263;SDS011;40178;53.042;6.406;2023-05-10T11:58:59;9.25;;;4.40;;
54263;SDS011;40178;53.042;6.406;2023-05-10T12:01:27;8.60;;;4.18;;
54263;SDS011;40178;53.042;6.406;2023-05-10T12:03:54;9.65;;;4.78;;
54263;SDS011;40178;53.042;6.406;2023-05-10T12:06:25;9.30;;;4.55;;
54263;SDS011;40178;53.042;6.406;2023-05-10T12:08:56;8.73;;;4.10;;
54263;SDS011;40178;53.042;6.406;2023-05-10T12:11:24;11.25;;;5.15;;
54263;SDS011;40178;53.042;6.406;2023-05-10T12:13:51;10.10;;;4.65;;
54263;SDS011;40178;53.042;6.406;2023-05-10T12:16:17;9.27;;;5.10;;
54263;SDS011;40178;53.042;6.406;2023-05-10T12:18:45;9.75;;;4.70;;
54263;SDS011;40178;53.042;6.406;2023-05-10T12:21:13;9.20;;;5.13;;
54263;SDS011;40178;53.042;6.406;2023-05-10T12:23:40;9.45;;;4.68;;
54263;SDS011;40178;53.042;6.406;2023-05-10T12:26:08;8.85;;;4.00;;
54263;SDS011;40178;53.042;6.406;2023-05-10T12:28:35;7.32;;;3.90;;
54263;SDS011;40178;53.042;6.406;2023-05-10T12:31:01;8.48;;;4.55;;
54263;SDS011;40178;53.042;6.406;2023-05-10T12:33:27;7.30;;;3.70;;
54263;SDS011;40178;53.042;6.406;2023-05-10T12:36:02;7.38;;;4.18;;
54263;SDS011;40178;53.042;6.406;2023-05-10T12:40:59;7.70;;;3.95;;
54263;SDS011;40178;53.042;6.406;2023-05-10T12:43:26;8.25;;;3.80;;
54263;SDS011;40178;53.042;6.406;2023-05-10T12:45:52;8.43;;;3.97;;
54263;SDS011;40178;53.042;6.406;2023-05-10T12:48:18;8.85;;;4.43;;
54263;SDS011;40178;53.042;6.406;2023-05-10T12:50:44;8.10;;;4.07;;
54263;SDS011;40178;53.042;6.406;2023-05-10T12:53:10;8.02;;;4.35;;
54263;SDS011;40178;53.042;6.406;2023-05-10T12:55:36;9.88;;;4.85;;
54263;SDS011;40178;53.042;6.406;2023-05-10T12:58:02;9.07;;;4.30;;
54263;SDS011;40178;53.042;6.406;2023-05-10T13:00:27;7.53;;;4.32;;
54263;SDS011;40178;53.042;6.406;2023-05-10T13:02:53;8.45;;;3.83;;
54263;SDS011;40178;53.042;6.406;2023-05-10T13:05:18;7.85;;;4.22;;
54263;SDS011;40178;53.042;6.406;2023-05-10T13:07:44;8.82;;;3.75;;
54263;SDS011;40178;53.042;6.406;2023-05-10T13:10:10;9.02;;;4.40;;
54263;SDS011;40178;53.042;6.406;2023-05-10T13:12:36;8.88;;;4.45;;
54263;SDS011;40178;53.042;6.406;2023-05-10T13:15:02;8.18;;;4.38;;
54263;SDS011;40178;53.042;6.406;2023-05-10T13:17:28;9.85;;;5.03;;
54263;SDS011;40178;53.042;6.406;2023-05-10T13:19:53;9.20;;;5.00;;
54263;SDS011;40178;53.042;6.406;2023-05-10T13:22:19;9.15;;;4.65;;
54263;SDS011;40178;53.042;6.406;2023-05-10T13:24:45;9.60;;;5.60;;
54263;SDS011;40178;53.042;6.406;2023-05-10T13:27:10;9.73;;;5.30;;
54263;SDS011;40178;53.042;6.406;2023-05-10T13:29:36;9.30;;;4.80;;
54263;SDS011;40178;53.042;6.406;2023-05-10T13:32:02;9.45;;;4.85;;
54263;SDS011;40178;53.042;6.406;2023-05-10T13:34:27;9.10;;;4.78;;
54263;SDS011;40178;53.042;6.406;2023-05-10T13:36:53;9.05;;;4.60;;
54263;SDS011;40178;53.042;6.406;2023-05-10T13:39:20;8.70;;;4.38;;
54263;SDS011;40178;53.042;6.406;2023-05-10T13:41:46;7.95;;;3.95;;
54263;SDS011;40178;53.042;6.406;2023-05-10T13:44:12;7.40;;;3.85;;
54263;SDS011;40178;53.042;6.406;2023-05-10T13:46:39;7.07;;;3.50;;
54263;SDS011;40178;53.042;6.406;2023-05-10T13:49:08;8.85;;;4.15;;
54263;SDS011;40178;53.042;6.406;2023-05-10T13:51:34;7.38;;;3.92;;
54263;SDS011;40178;53.042;6.406;2023-05-10T13:54:00;7.65;;;4.32;;
54263;SDS011;40178;53.042;6.406;2023-05-10T13:56:27;8.32;;;4.18;;
54263;SDS011;40178;53.042;6.406;2023-05-10T13:58:52;8.55;;;4.10;;
54263;SDS011;40178;53.042;6.406;2023-05-10T14:01:18;9.48;;;4.82;;
54263;SDS011;40178;53.042;6.406;2023-05-10T14:03:44;9.13;;;4.70;;
54263;SDS011;40178;53.042;6.406;2023-05-10T14:06:09;8.07;;;4.30;;
54263;SDS011;40178;53.042;6.406;2023-05-10T14:08:35;8.15;;;4.10;;
54263;SDS011;40178;53.042;6.406;2023-05-10T14:11:01;6.97;;;3.67;;
54263;SDS011;40178;53.042;6.406;2023-05-10T14:13:27;7.70;;;3.63;;
54263;SDS011;40178;53.042;6.406;2023-05-10T14:15:54;7.13;;;3.35;;
54263;SDS011;40178;53.042;6.406;2023-05-10T14:18:20;8.05;;;3.20;;
54263;SDS011;40178;53.042;6.406;2023-05-10T14:20:46;7.35;;;3.05;;
54263;SDS011;40178;53.042;6.406;2023-05-10T14:23:12;7.47;;;3.15;;
54263;SDS011;40178;53.042;6.406;2023-05-10T14:25:39;6.65;;;3.00;;
54263;SDS011;40178;53.042;6.406;2023-05-10T14:28:05;6.15;;;3.30;;
54263;SDS011;40178;53.042;6.406;2023-05-10T14:30:31;6.65;;;3.00;;
54263;SDS011;40178;53.042;6.406;2023-05-10T14:32:59;6.18;;;2.90;;
54263;SDS011;40178;53.042;6.406;2023-05-10T14:35:26;6.68;;;2.70;;
54263;SDS011;40178;53.042;6.406;2023-05-10T14:37:52;5.60;;;3.10;;
54263;SDS011;40178;53.042;6.406;2023-05-10T14:40:18;7.85;;;3.05;;
54263;SDS011;40178;53.042;6.406;2023-05-10T14:42:43;8.02;;;3.08;;
54263;SDS011;40178;53.042;6.406;2023-05-10T14:45:09;7.18;;;2.95;;
54263;SDS011;40178;53.042;6.406;2023-05-10T14:47:36;7.10;;;3.63;;
54263;SDS011;40178;53.042;6.406;2023-05-10T14:50:01;6.60;;;3.58;;
54263;SDS011;40178;53.042;6.406;2023-05-10T14:52:27;6.80;;;3.38;;
54263;SDS011;40178;53.042;6.406;2023-05-10T14:54:52;5.90;;;2.80;;
54263;SDS011;40178;53.042;6.406;2023-05-10T14:57:18;6.80;;;3.00;;
54263;SDS011;40178;53.042;6.406;2023-05-10T14:59:44;6.47;;;2.58;;
54263;SDS011;40178;53.042;6.406;2023-05-10T15:02:09;5.10;;;2.53;;
54263;SDS011;40178;53.042;6.406;2023-05-10T15:04:35;5.60;;;2.65;;
54263;SDS011;40178;53.042;6.406;2023-05-10T15:07:01;7.13;;;2.95;;
54263;SDS011;40178;53.042;6.406;2023-05-10T15:09:27;7.50;;;3.67;;
54263;SDS011;40178;53.042;6.406;2023-05-10T15:11:53;6.85;;;3.33;;
54263;SDS011;40178;53.042;6.406;2023-05-10T15:14:18;6.38;;;3.00;;
54263;SDS011;40178;53.042;6.406;2023-05-10T15:16:44;5.90;;;3.30;;